Terminal Aerodrome Forecast
Issued by NWS

Current Version | Previous Version | Text Only | Print | Product List | Glossary Off
Versions: 1 2 3 4 5 6 7 8 9 10 11 12 13 14 15 16 17 18 19 20 21 22 23 24 25

872
FTUS41 KPBZ 151134
TAFMGW
TAF
KMGW 151134Z 1512/1612 23009KT P6SM BKN025
     FM152000 23012KT P6SM -RA OVC015
     FM152300 22012KT 3SM RA OVC008
     FM160800 28011G20KT 6SM -RA OVC015=

USA.gov is the U.S. government's official web portal to all federal, state and local government web resources and services.